createdAt,value
2022-12-28T00:02:57.986Z,0.90
2022-12-28T00:05:59.677Z,0.60
2022-12-28T00:09:02.510Z,1.00
2022-12-28T00:12:04.499Z,0.90
2022-12-28T00:15:06.743Z,1.00
2022-12-28T00:18:08.469Z,1.20
2022-12-28T00:21:10.326Z,0.90
2022-12-28T00:24:19.031Z,0.90
2022-12-28T00:27:20.698Z,0.93
2022-12-28T00:30:22.348Z,0.87
2022-12-28T00:33:24.784Z,1.30
2022-12-28T00:37:11.093Z,1.13
2022-12-28T00:39:48.353Z,1.30
2022-12-28T00:42:50.036Z,0.93
2022-12-28T00:45:51.873Z,1.37
2022-12-28T00:48:53.606Z,0.80
2022-12-28T00:51:55.257Z,1.17
2022-12-28T00:54:57.768Z,0.83
2022-12-28T00:58:00.526Z,0.80
2022-12-28T01:01:03.331Z,1.00
2022-12-28T01:04:05.773Z,1.40
2022-12-28T01:07:07.425Z,0.80
2022-12-28T01:10:09.805Z,1.27
2022-12-28T01:13:11.473Z,1.23
2022-12-28T01:16:22.708Z,0.50
2022-12-28T01:19:25.117Z,1.30
2022-12-28T01:22:27.414Z,0.90
2022-12-28T01:25:29.060Z,0.90
2022-12-28T01:28:30.851Z,1.43
2022-12-28T01:31:33.153Z,1.03
2022-12-28T01:34:34.918Z,0.90
2022-12-28T01:37:36.578Z,1.00
2022-12-28T01:40:41.806Z,0.97
2022-12-28T01:43:54.050Z,0.97
2022-12-28T01:47:04.148Z,1.27
2022-12-28T01:50:13.180Z,0.97
2022-12-28T01:53:15.935Z,1.07
2022-12-28T01:56:17.893Z,1.70
2022-12-28T01:59:24.533Z,1.07
2022-12-28T02:02:27.026Z,0.97
2022-12-28T02:05:39.877Z,1.53
2022-12-28T02:08:58.130Z,0.90
2022-12-28T02:12:00.834Z,0.77
2022-12-28T02:15:04.057Z,0.93
2022-12-28T02:18:05.971Z,0.90
2022-12-28T02:21:23.382Z,0.77
2022-12-28T02:24:41.371Z,1.20
2022-12-28T02:28:04.171Z,0.90
2022-12-28T02:31:15.743Z,0.87
2022-12-28T02:34:31.913Z,0.50
2022-12-28T02:37:46.099Z,1.23
2022-12-28T02:41:01.061Z,0.80
2022-12-28T02:44:02.904Z,1.23
2022-12-28T02:47:32.568Z,0.90
2022-12-28T02:50:53.788Z,0.70
2022-12-28T02:54:02.097Z,0.80
2022-12-28T02:57:48.514Z,0.80
2022-12-28T03:00:50.182Z,0.77
2022-12-28T03:04:08.470Z,0.83
2022-12-28T03:07:44.049Z,1.53
2022-12-28T03:11:04.433Z,0.80
2022-12-28T03:14:12.848Z,0.87
2022-12-28T03:17:36.875Z,0.87
2022-12-28T03:20:57.992Z,1.03
2022-12-28T03:24:20.558Z,1.03
2022-12-28T03:27:43.710Z,0.73
2022-12-28T03:31:06.541Z,0.87
2022-12-28T03:34:14.450Z,0.70
2022-12-28T03:37:38.741Z,0.70
2022-12-28T03:40:59.409Z,0.80
2022-12-28T03:44:11.069Z,0.70
2022-12-28T03:47:14.764Z,1.10
2022-12-28T03:50:18.956Z,0.90
2022-12-28T03:53:32.092Z,1.53
2022-12-28T03:56:33.968Z,0.80
2022-12-28T03:59:37.625Z,1.00
2022-12-28T04:02:41.031Z,1.00
2022-12-28T04:05:42.747Z,1.47
2022-12-28T04:08:46.208Z,1.10
2022-12-28T04:11:48.186Z,1.27
2022-12-28T04:14:58.352Z,0.80
2022-12-28T04:18:01.328Z,1.50
2022-12-28T04:21:03.554Z,1.40
2022-12-28T04:24:05.488Z,1.47
2022-12-28T04:27:07.721Z,1.13
2022-12-28T04:30:09.965Z,1.20
2022-12-28T04:33:11.606Z,1.37
2022-12-28T04:36:15.842Z,0.70
2022-12-28T04:39:19.263Z,1.60
2022-12-28T04:42:21.145Z,1.47
2022-12-28T04:45:22.837Z,1.30
2022-12-28T04:48:25.376Z,1.40
2022-12-28T04:51:28.932Z,1.47
2022-12-28T04:54:30.571Z,1.30
2022-12-28T04:57:32.237Z,1.67
2022-12-28T05:00:34.006Z,1.67
2022-12-28T05:03:37.461Z,1.50
2022-12-28T05:06:39.292Z,1.33
2022-12-28T05:09:40.940Z,1.70
2022-12-28T05:12:42.722Z,1.40
2022-12-28T05:15:44.380Z,2.00
2022-12-28T05:18:46.514Z,1.40
2022-12-28T05:21:48.259Z,1.67
2022-12-28T05:24:50.009Z,1.70
2022-12-28T05:27:51.675Z,2.07
2022-12-28T05:30:58.451Z,1.70
2022-12-28T05:34:00.157Z,1.27
2022-12-28T05:37:01.826Z,1.90
2022-12-28T05:40:03.769Z,1.70
2022-12-28T05:43:05.436Z,2.13
2022-12-28T05:46:10.122Z,1.77
2022-12-28T05:49:11.820Z,2.27
2022-12-28T05:52:13.496Z,2.20
2022-12-28T05:55:15.223Z,2.07
2022-12-28T05:58:16.881Z,2.27
2022-12-28T06:01:20.811Z,1.87
2022-12-28T06:04:22.596Z,1.77
2022-12-28T06:07:24.324Z,2.33
2022-12-28T06:10:25.985Z,1.83
2022-12-28T06:13:27.833Z,2.60
2022-12-28T06:16:31.994Z,2.87
2022-12-28T06:19:33.683Z,2.60
2022-12-28T06:22:36.088Z,2.63
2022-12-28T06:25:38.222Z,2.50
2022-12-28T06:28:40.701Z,2.33
2022-12-28T06:31:51.173Z,2.80
2022-12-28T06:34:52.919Z,3.77
2022-12-28T06:37:54.626Z,2.70
2022-12-28T06:41:16.566Z,2.87
2022-12-28T06:44:18.302Z,2.83
2022-12-28T06:47:20.014Z,3.23
2022-12-28T06:50:21.668Z,3.40
2022-12-28T06:53:24.598Z,3.23
2022-12-28T06:56:29.355Z,3.00
2022-12-28T06:59:31.037Z,3.27
2022-12-28T07:02:32.862Z,2.80
2022-12-28T07:05:34.670Z,3.30
2022-12-28T07:08:36.665Z,2.67
2022-12-28T07:11:38.393Z,2.97
2022-12-28T07:14:40.209Z,2.90
2022-12-28T07:17:41.854Z,3.27
2022-12-28T07:20:43.506Z,3.20
2022-12-28T07:23:45.168Z,3.20
2022-12-28T07:26:48.311Z,3.13
2022-12-28T07:29:49.981Z,3.77
2022-12-28T07:32:51.678Z,2.97
2022-12-28T07:35:53.344Z,3.13
2022-12-28T07:38:55.142Z,4.00
2022-12-28T07:41:56.809Z,3.10
2022-12-28T07:44:58.472Z,3.80
2022-12-28T07:48:00.138Z,3.27
2022-12-28T07:51:10.639Z,4.00
2022-12-28T07:54:12.348Z,3.33
2022-12-28T07:57:14.077Z,3.23
2022-12-28T08:00:15.982Z,3.53
2022-12-28T08:03:18.509Z,3.70
2022-12-28T08:06:22.878Z,3.53
2022-12-28T08:09:24.539Z,4.10
2022-12-28T08:12:26.184Z,4.17
2022-12-28T08:15:28.439Z,4.13
2022-12-28T08:18:30.654Z,4.10
2022-12-28T08:21:35.849Z,4.10
2022-12-28T08:24:37.502Z,3.57
2022-12-28T08:27:39.159Z,3.80
2022-12-28T08:30:40.901Z,3.83
2022-12-28T08:33:42.833Z,3.30
2022-12-28T08:36:44.608Z,4.03
2022-12-28T08:39:46.587Z,4.20
2022-12-28T08:42:48.258Z,3.53
2022-12-28T08:46:17.354Z,3.70
2022-12-28T08:49:19.163Z,4.03
2022-12-28T08:52:20.849Z,4.37
2022-12-28T08:55:22.558Z,3.87
2022-12-28T08:58:24.341Z,4.13
2022-12-28T09:01:31.388Z,4.20
2022-12-28T09:04:34.598Z,3.93
2022-12-28T09:07:36.360Z,3.27
2022-12-28T09:10:38.039Z,3.97
2022-12-28T09:13:40.673Z,3.70
2022-12-28T09:16:42.398Z,3.50
2022-12-28T09:19:44.045Z,4.07
2022-12-28T09:22:45.712Z,3.23
2022-12-28T09:25:47.819Z,3.37
2022-12-28T09:28:56.212Z,2.47
2022-12-28T09:31:58.040Z,3.37
2022-12-28T09:34:59.707Z,3.10
2022-12-28T09:38:01.375Z,3.27
2022-12-28T09:41:11.329Z,3.10
2022-12-28T09:44:12.963Z,2.87
2022-12-28T09:47:20.434Z,3.63
2022-12-28T09:50:29.929Z,3.97
2022-12-28T09:53:34.277Z,3.77
2022-12-28T09:56:42.233Z,3.13
2022-12-28T09:59:46.327Z,3.43
2022-12-28T10:03:04.112Z,3.67
2022-12-28T10:06:17.336Z,3.80
2022-12-28T10:09:33.509Z,3.43
2022-12-28T10:12:35.487Z,3.93
2022-12-28T10:15:37.240Z,3.23
2022-12-28T10:18:39.623Z,3.00
2022-12-28T10:21:41.829Z,2.97
2022-12-28T10:24:44.333Z,2.60
2022-12-28T10:27:46.294Z,2.60
2022-12-28T10:31:04.814Z,2.20
2022-12-28T10:34:22.899Z,2.30
2022-12-28T10:37:34.742Z,2.37
2022-12-28T10:40:39.385Z,2.47
2022-12-28T10:43:44.257Z,2.97
2022-12-28T10:46:53.434Z,2.83
2022-12-28T10:50:18.936Z,2.23
2022-12-28T10:53:19.674Z,2.40
2022-12-28T10:56:22.939Z,2.03
2022-12-28T10:59:27.761Z,1.77
2022-12-28T11:02:32.534Z,2.13
2022-12-28T11:05:34.803Z,2.00
2022-12-28T11:08:37.379Z,4.73
2022-12-28T11:11:40.352Z,3.07
2022-12-28T11:14:42.042Z,3.20
2022-12-28T11:17:45.555Z,3.50
2022-12-28T11:20:53.130Z,2.37
2022-12-28T11:23:55.074Z,1.80
2022-12-28T11:26:57.734Z,2.43
2022-12-28T11:29:59.463Z,2.90
2022-12-28T11:33:04.788Z,1.50
2022-12-28T11:36:14.047Z,1.57
2022-12-28T11:39:27.965Z,2.40
2022-12-28T11:42:40.995Z,1.77
2022-12-28T11:45:57.713Z,2.60
2022-12-28T11:49:05.467Z,2.37
2022-12-28T11:52:27.509Z,2.13
2022-12-28T11:55:38.348Z,1.60
2022-12-28T11:58:39.985Z,1.40
2022-12-28T12:01:42.877Z,1.70
2022-12-28T12:04:46.233Z,1.57
2022-12-28T12:07:48.318Z,1.30
2022-12-28T12:11:18.047Z,1.13
2022-12-28T12:14:35.058Z,1.17
2022-12-28T12:17:46.569Z,1.70
2022-12-28T12:21:13.376Z,1.57
2022-12-28T12:24:29.106Z,1.20
2022-12-28T12:27:33.612Z,1.10
2022-12-28T12:30:36.117Z,1.33
2022-12-28T12:33:44.554Z,1.30
2022-12-28T12:37:07.416Z,1.10
2022-12-28T12:40:37.775Z,1.10
2022-12-28T12:43:45.998Z,1.00
2022-12-28T12:47:05.449Z,1.53
2022-12-28T12:50:33.167Z,1.47
2022-12-28T12:54:12.361Z,1.07
2022-12-28T12:57:17.962Z,1.40
2022-12-28T13:00:24.271Z,1.23
2022-12-28T13:03:48.538Z,1.33
2022-12-28T13:06:56.418Z,1.30
2022-12-28T13:10:02.270Z,1.23
2022-12-28T13:13:05.513Z,1.33
2022-12-28T13:16:40.040Z,1.07
2022-12-28T13:19:41.721Z,1.30
2022-12-28T13:22:46.448Z,1.60
2022-12-28T13:25:51.531Z,1.63
2022-12-28T13:29:02.083Z,1.10
2022-12-28T13:32:04.027Z,1.17
2022-12-28T13:35:38.142Z,1.57
2022-12-28T13:38:40.268Z,1.33
2022-12-28T13:41:51.254Z,1.17
2022-12-28T13:44:57.201Z,1.33
2022-12-28T13:47:58.983Z,1.00
2022-12-28T13:51:01.040Z,1.10
2022-12-28T13:54:03.252Z,1.20
2022-12-28T13:57:44.581Z,1.07
2022-12-28T14:00:31.572Z,1.17
2022-12-28T14:03:40.615Z,1.60
2022-12-28T14:06:44.396Z,1.10
2022-12-28T14:09:48.167Z,1.30
2022-12-28T14:12:50.478Z,1.37
2022-12-28T14:15:54.263Z,7.90
2022-12-28T14:18:56.904Z,1.50
2022-12-28T14:21:58.586Z,1.83
2022-12-28T14:25:24.283Z,1.40
2022-12-28T14:28:36.891Z,0.97
2022-12-28T14:31:38.773Z,2.50
2022-12-28T14:34:40.481Z,0.90
2022-12-28T14:37:42.564Z,0.80
2022-12-28T14:40:44.588Z,1.20
2022-12-28T14:43:55.504Z,1.03
2022-12-28T14:46:57.717Z,1.00
2022-12-28T14:50:01.236Z,1.03
2022-12-28T14:53:18.263Z,0.97
2022-12-28T14:56:20.609Z,1.23
2022-12-28T14:59:30.084Z,1.00
2022-12-28T15:02:34.957Z,1.80
2022-12-28T15:05:44.166Z,1.30
2022-12-28T15:08:53.409Z,1.13
2022-12-28T15:12:20.343Z,1.53
2022-12-28T15:15:22.235Z,1.27
2022-12-28T15:18:24.770Z,1.20
2022-12-28T15:21:26.513Z,1.27
2022-12-28T15:24:33.490Z,1.10
2022-12-28T15:27:36.047Z,0.80
2022-12-28T15:30:44.451Z,1.47
2022-12-28T15:33:46.715Z,1.10
2022-12-28T15:36:48.369Z,1.07
2022-12-28T15:39:50.111Z,1.30
2022-12-28T15:42:51.830Z,1.90
2022-12-28T15:45:58.414Z,1.13
2022-12-28T15:49:02.158Z,0.90
2022-12-28T15:52:04.099Z,0.80
2022-12-28T15:55:06.229Z,1.30
2022-12-28T15:58:07.884Z,1.77
2022-12-28T16:01:09.683Z,1.30
2022-12-28T16:04:11.927Z,2.03
2022-12-28T16:07:13.776Z,1.80
2022-12-28T16:10:15.643Z,1.60
2022-12-28T16:13:17.328Z,1.50
2022-12-28T16:16:20.197Z,1.67
2022-12-28T16:19:21.906Z,2.10
2022-12-28T16:22:23.653Z,1.13
2022-12-28T16:25:25.330Z,1.90
2022-12-28T16:28:27.823Z,1.53
2022-12-28T16:31:35.264Z,1.13
2022-12-28T16:34:37.248Z,1.07
2022-12-28T16:37:38.957Z,0.93
2022-12-28T16:40:40.637Z,0.87
2022-12-28T16:43:42.396Z,1.67
2022-12-28T16:46:44.261Z,1.30
2022-12-28T16:49:45.912Z,0.90
2022-12-28T16:52:47.595Z,0.90
2022-12-28T16:55:49.265Z,1.10
2022-12-28T16:58:54.812Z,0.90
2022-12-28T17:01:57.578Z,1.10
2022-12-28T17:04:59.426Z,0.97
2022-12-28T17:08:02.009Z,0.90
2022-12-28T17:11:09.176Z,1.17
2022-12-28T17:14:12.455Z,0.90
2022-12-28T17:17:14.129Z,0.90
2022-12-28T17:20:16.023Z,1.13
2022-12-28T17:23:17.689Z,0.90
2022-12-28T17:26:19.555Z,0.90
2022-12-28T17:29:21.562Z,1.00
2022-12-28T17:32:23.286Z,1.10
2022-12-28T17:35:25.078Z,0.80
2022-12-28T17:38:26.793Z,0.93
2022-12-28T17:41:28.741Z,0.90
2022-12-28T17:44:30.844Z,0.80
2022-12-28T17:47:32.504Z,1.00
2022-12-28T17:50:34.152Z,1.20
2022-12-28T17:53:36.503Z,0.90
2022-12-28T17:56:39.147Z,1.20
2022-12-28T17:59:40.855Z,1.23
2022-12-28T18:02:45.781Z,0.93
2022-12-28T18:05:49.191Z,0.87
2022-12-28T18:08:51.098Z,1.07
2022-12-28T18:11:52.806Z,1.20
2022-12-28T18:14:54.477Z,1.00
2022-12-28T18:17:56.139Z,1.33
2022-12-28T18:21:07.337Z,0.93
2022-12-28T18:24:13.327Z,1.10
2022-12-28T18:27:15.370Z,1.20
2022-12-28T18:30:17.029Z,1.10
2022-12-28T18:33:18.654Z,0.80
2022-12-28T18:36:20.447Z,1.17
2022-12-28T18:39:22.139Z,1.10
2022-12-28T18:42:25.091Z,1.10
2022-12-28T18:45:26.704Z,0.80
2022-12-28T18:48:29.965Z,1.10
2022-12-28T18:51:31.619Z,1.07
2022-12-28T18:54:33.512Z,1.20
2022-12-28T18:57:35.202Z,1.40
2022-12-28T19:00:38.487Z,1.67
2022-12-28T19:03:40.346Z,0.93
2022-12-28T19:06:43.074Z,1.33
2022-12-28T19:10:11.720Z,1.03
2022-12-28T19:13:14.585Z,1.23
2022-12-28T19:16:18.267Z,1.27
2022-12-28T19:19:20.902Z,1.10
2022-12-28T19:22:22.653Z,1.20
2022-12-28T19:25:24.283Z,1.30
2022-12-28T19:28:25.968Z,1.10
2022-12-28T19:31:27.938Z,1.30
2022-12-28T19:34:29.609Z,1.10
2022-12-28T19:37:31.252Z,1.10
2022-12-28T19:40:32.953Z,1.00
2022-12-28T19:43:34.847Z,1.40
2022-12-28T19:46:36.527Z,0.90
2022-12-28T19:49:38.435Z,1.33
2022-12-28T19:52:40.099Z,1.17
2022-12-28T19:55:41.745Z,1.20
2022-12-28T19:58:45.139Z,1.50
2022-12-28T20:01:47.015Z,1.40
2022-12-28T20:04:48.719Z,1.20
2022-12-28T20:07:50.355Z,1.10
2022-12-28T20:10:56.535Z,1.30
2022-12-28T20:14:01.139Z,1.20
2022-12-28T20:17:02.816Z,1.00
2022-12-28T20:20:04.947Z,1.17
2022-12-28T20:23:06.611Z,1.00
2022-12-28T20:26:09.348Z,1.10
2022-12-28T20:29:11.054Z,1.33
2022-12-28T20:32:12.714Z,1.20
2022-12-28T20:35:14.563Z,1.40
2022-12-28T20:38:16.278Z,1.10
2022-12-28T20:41:39.719Z,0.73
2022-12-28T20:44:41.399Z,1.10
2022-12-28T20:47:43.116Z,1.37
2022-12-28T20:50:44.900Z,1.07
2022-12-28T20:53:46.752Z,1.20
2022-12-28T20:56:54.234Z,0.97
2022-12-28T20:59:56.802Z,1.03
2022-12-28T21:02:58.846Z,1.10
2022-12-28T21:06:00.585Z,1.27
2022-12-28T21:09:02.383Z,0.93
2022-12-28T21:12:04.373Z,0.97
2022-12-28T21:15:06.562Z,0.67
2022-12-28T21:18:08.276Z,0.97
2022-12-28T21:21:19.145Z,0.90
2022-12-28T21:24:20.920Z,0.80
2022-12-28T21:27:22.573Z,0.50
2022-12-28T21:30:24.237Z,0.93
2022-12-28T21:33:25.908Z,0.90
2022-12-28T21:36:27.638Z,0.87
2022-12-28T21:39:29.274Z,0.97
2022-12-28T21:42:31.157Z,0.90
2022-12-28T21:45:32.859Z,1.07
2022-12-28T21:48:36.686Z,1.10
2022-12-28T21:51:39.245Z,1.10
2022-12-28T21:54:40.995Z,0.93
2022-12-28T21:57:42.672Z,1.00
2022-12-28T22:01:03.262Z,0.93
2022-12-28T22:04:24.046Z,1.00
2022-12-28T22:07:25.759Z,1.27
2022-12-28T22:10:46.176Z,1.00
2022-12-28T22:13:48.002Z,0.97
2022-12-28T22:16:49.692Z,1.17
2022-12-28T22:19:51.374Z,1.57
2022-12-28T22:22:56.311Z,0.87
2022-12-28T22:25:57.982Z,1.10
2022-12-28T22:28:59.657Z,1.20
2022-12-28T22:32:01.380Z,1.10
2022-12-28T22:35:03.381Z,1.20
2022-12-28T22:38:05.104Z,1.03
2022-12-28T22:41:06.966Z,0.90
2022-12-28T22:44:10.012Z,0.97
2022-12-28T22:47:11.687Z,1.00
2022-12-28T22:50:15.516Z,0.93
2022-12-28T22:53:17.195Z,0.93
2022-12-28T22:56:20.733Z,0.90
2022-12-28T22:59:22.630Z,1.07
2022-12-28T23:02:24.475Z,0.97
2022-12-28T23:05:26.238Z,1.17
2022-12-28T23:08:28.193Z,1.00
2022-12-28T23:11:41.777Z,1.50
2022-12-28T23:15:01.961Z,1.00
2022-12-28T23:18:22.507Z,1.30
2022-12-28T23:21:43.058Z,1.30
2022-12-28T23:25:03.433Z,0.70
2022-12-28T23:28:07.969Z,1.07
2022-12-28T23:31:09.784Z,1.07
2022-12-28T23:34:11.434Z,1.00
2022-12-28T23:37:13.244Z,0.90
2022-12-28T23:40:17.081Z,0.80
2022-12-28T23:43:18.732Z,0.97
2022-12-28T23:46:20.466Z,0.90
2022-12-28T23:49:22.281Z,0.80
2022-12-28T23:52:26.185Z,0.80
2022-12-28T23:55:27.981Z,1.03
2022-12-28T23:58:29.682Z,0.60
